In Rescue
 
Open Full Screen Window  High Contrast Mode
Wind Gusting 00 knots
08
November 29, 2022 8:30 AM EST
Weather Information
Wind Direction
  170 °
Wind Speed
  08 kt (9 mph)
Wind Gust
  00 kt (0 mph)
Altimeter
29.97 in
Visibility
10 SM
Temperature
04° C
39° F
Dewpoint
00° C
32° F
Humidity
75%
Sky Condition
Overcast @ 3,800 ft
VFR

METAR KPZQ 291330Z AUTO 17008KT 10SM OVC038 04/00 A2997 RMK AO2 T00350000

FAA Disclaimer: The data displayed is for advisory purposes only and is not to be used for flight planning or operations.